sensor_id;sensor_type;location;lat;lon;timestamp;P1;durP1;ratioP1;P2;durP2;ratioP2
31990;SDS011;18508;49.386;8.370;2022-07-29T00:02:18;16.77;;;4.45;;
31990;SDS011;18508;49.386;8.370;2022-07-29T00:04:46;11.18;;;3.97;;
31990;SDS011;18508;49.386;8.370;2022-07-29T00:07:15;8.70;;;4.50;;
31990;SDS011;18508;49.386;8.370;2022-07-29T00:09:43;10.35;;;4.10;;
31990;SDS011;18508;49.386;8.370;2022-07-29T00:12:19;10.93;;;4.45;;
31990;SDS011;18508;49.386;8.370;2022-07-29T00:14:52;10.40;;;3.78;;
31990;SDS011;18508;49.386;8.370;2022-07-29T00:17:20;13.02;;;4.07;;
31990;SDS011;18508;49.386;8.370;2022-07-29T00:19:49;9.05;;;3.90;;
31990;SDS011;18508;49.386;8.370;2022-07-29T00:22:17;8.43;;;4.18;;
31990;SDS011;18508;49.386;8.370;2022-07-29T00:24:46;8.55;;;3.83;;
31990;SDS011;18508;49.386;8.370;2022-07-29T00:27:15;9.75;;;3.67;;
31990;SDS011;18508;49.386;8.370;2022-07-29T00:29:44;6.10;;;3.30;;
31990;SDS011;18508;49.386;8.370;2022-07-29T00:32:13;12.45;;;3.67;;
31990;SDS011;18508;49.386;8.370;2022-07-29T00:34:41;7.95;;;3.60;;
31990;SDS011;18508;49.386;8.370;2022-07-29T00:37:26;9.55;;;3.58;;
31990;SDS011;18508;49.386;8.370;2022-07-29T00:39:54;8.50;;;3.28;;
31990;SDS011;18508;49.386;8.370;2022-07-29T00:42:22;8.57;;;3.17;;
31990;SDS011;18508;49.386;8.370;2022-07-29T00:44:52;7.28;;;3.17;;
31990;SDS011;18508;49.386;8.370;2022-07-29T00:47:19;4.05;;;3.22;;
31990;SDS011;18508;49.386;8.370;2022-07-29T00:49:47;7.53;;;3.28;;
31990;SDS011;18508;49.386;8.370;2022-07-29T00:52:15;7.82;;;3.15;;
31990;SDS011;18508;49.386;8.370;2022-07-29T00:54:43;5.65;;;3.00;;
31990;SDS011;18508;49.386;8.370;2022-07-29T00:57:11;10.95;;;3.20;;
31990;SDS011;18508;49.386;8.370;2022-07-29T00:59:40;9.82;;;3.17;;
31990;SDS011;18508;49.386;8.370;2022-07-29T01:02:09;6.57;;;3.00;;
31990;SDS011;18508;49.386;8.370;2022-07-29T01:04:37;9.35;;;2.75;;
31990;SDS011;18508;49.386;8.370;2022-07-29T01:07:06;13.80;;;3.05;;
31990;SDS011;18508;49.386;8.370;2022-07-29T01:09:35;7.90;;;3.17;;
31990;SDS011;18508;49.386;8.370;2022-07-29T01:12:13;6.85;;;2.85;;
31990;SDS011;18508;49.386;8.370;2022-07-29T01:14:46;6.97;;;3.47;;
31990;SDS011;18508;49.386;8.370;2022-07-29T01:17:18;6.70;;;2.78;;
31990;SDS011;18508;49.386;8.370;2022-07-29T01:19:52;7.60;;;3.00;;
31990;SDS011;18508;49.386;8.370;2022-07-29T01:22:28;8.07;;;2.92;;
31990;SDS011;18508;49.386;8.370;2022-07-29T01:25:10;8.82;;;3.00;;
31990;SDS011;18508;49.386;8.370;2022-07-29T01:28:00;9.45;;;3.30;;
31990;SDS011;18508;49.386;8.370;2022-07-29T01:30:38;6.72;;;3.05;;
31990;SDS011;18508;49.386;8.370;2022-07-29T01:33:13;5.85;;;3.03;;
31990;SDS011;18508;49.386;8.370;2022-07-29T01:35:58;8.65;;;3.10;;
31990;SDS011;18508;49.386;8.370;2022-07-29T01:38:28;7.03;;;2.80;;
31990;SDS011;18508;49.386;8.370;2022-07-29T01:40:58;5.28;;;2.55;;
31990;SDS011;18508;49.386;8.370;2022-07-29T01:43:31;6.63;;;2.95;;
31990;SDS011;18508;49.386;8.370;2022-07-29T01:46:09;4.53;;;2.40;;
31990;SDS011;18508;49.386;8.370;2022-07-29T01:48:42;10.27;;;3.35;;
31990;SDS011;18508;49.386;8.370;2022-07-29T01:51:16;12.60;;;3.53;;
31990;SDS011;18508;49.386;8.370;2022-07-29T01:53:47;6.80;;;2.92;;
31990;SDS011;18508;49.386;8.370;2022-07-29T01:56:21;6.90;;;3.03;;
31990;SDS011;18508;49.386;8.370;2022-07-29T01:58:51;9.10;;;2.65;;
31990;SDS011;18508;49.386;8.370;2022-07-29T02:01:22;6.70;;;2.75;;
31990;SDS011;18508;49.386;8.370;2022-07-29T02:03:52;8.10;;;3.33;;
31990;SDS011;18508;49.386;8.370;2022-07-29T02:06:22;5.93;;;3.05;;
31990;SDS011;18508;49.386;8.370;2022-07-29T02:08:51;6.25;;;2.85;;
31990;SDS011;18508;49.386;8.370;2022-07-29T02:11:20;7.10;;;2.90;;
31990;SDS011;18508;49.386;8.370;2022-07-29T02:13:48;8.63;;;3.03;;
31990;SDS011;18508;49.386;8.370;2022-07-29T02:16:18;5.43;;;2.67;;
31990;SDS011;18508;49.386;8.370;2022-07-29T02:18:50;8.50;;;2.85;;
31990;SDS011;18508;49.386;8.370;2022-07-29T02:21:21;6.63;;;3.13;;
31990;SDS011;18508;49.386;8.370;2022-07-29T02:23:52;10.32;;;3.00;;
31990;SDS011;18508;49.386;8.370;2022-07-29T02:26:22;5.55;;;2.80;;
31990;SDS011;18508;49.386;8.370;2022-07-29T02:28:52;8.65;;;3.50;;
31990;SDS011;18508;49.386;8.370;2022-07-29T02:31:25;11.25;;;3.72;;
31990;SDS011;18508;49.386;8.370;2022-07-29T02:36:24;9.50;;;3.60;;
31990;SDS011;18508;49.386;8.370;2022-07-29T02:38:53;10.27;;;3.10;;
31990;SDS011;18508;49.386;8.370;2022-07-29T02:41:27;6.15;;;3.00;;
31990;SDS011;18508;49.386;8.370;2022-07-29T02:44:00;9.88;;;3.20;;
31990;SDS011;18508;49.386;8.370;2022-07-29T02:46:32;13.35;;;4.50;;
31990;SDS011;18508;49.386;8.370;2022-07-29T02:49:04;8.10;;;3.40;;
31990;SDS011;18508;49.386;8.370;2022-07-29T02:51:40;19.17;;;5.32;;
31990;SDS011;18508;49.386;8.370;2022-07-29T02:54:11;8.10;;;3.58;;
31990;SDS011;18508;49.386;8.370;2022-07-29T02:56:47;11.27;;;4.00;;
31990;SDS011;18508;49.386;8.370;2022-07-29T02:59:19;18.92;;;6.68;;
31990;SDS011;18508;49.386;8.370;2022-07-29T03:01:53;8.65;;;3.92;;
31990;SDS011;18508;49.386;8.370;2022-07-29T03:04:24;8.40;;;3.22;;
31990;SDS011;18508;49.386;8.370;2022-07-29T03:06:55;9.38;;;3.05;;
31990;SDS011;18508;49.386;8.370;2022-07-29T03:09:26;27.20;;;5.75;;
31990;SDS011;18508;49.386;8.370;2022-07-29T03:11:55;12.43;;;4.18;;
31990;SDS011;18508;49.386;8.370;2022-07-29T03:14:24;19.55;;;5.55;;
31990;SDS011;18508;49.386;8.370;2022-07-29T03:16:54;13.35;;;4.53;;
31990;SDS011;18508;49.386;8.370;2022-07-29T03:19:23;9.90;;;4.07;;
31990;SDS011;18508;49.386;8.370;2022-07-29T03:21:51;9.40;;;3.50;;
31990;SDS011;18508;49.386;8.370;2022-07-29T03:24:29;6.60;;;3.17;;
31990;SDS011;18508;49.386;8.370;2022-07-29T03:26:58;10.30;;;3.92;;
31990;SDS011;18508;49.386;8.370;2022-07-29T03:29:26;6.32;;;3.20;;
31990;SDS011;18508;49.386;8.370;2022-07-29T03:32:00;12.30;;;3.35;;
31990;SDS011;18508;49.386;8.370;2022-07-29T03:34:33;8.82;;;3.50;;
31990;SDS011;18508;49.386;8.370;2022-07-29T03:37:02;15.50;;;4.53;;
31990;SDS011;18508;49.386;8.370;2022-07-29T03:39:31;8.05;;;3.10;;
31990;SDS011;18508;49.386;8.370;2022-07-29T03:42:02;11.00;;;3.25;;
31990;SDS011;18508;49.386;8.370;2022-07-29T03:44:31;6.72;;;3.20;;
31990;SDS011;18508;49.386;8.370;2022-07-29T03:47:02;10.65;;;3.75;;
31990;SDS011;18508;49.386;8.370;2022-07-29T03:49:33;11.43;;;3.50;;
31990;SDS011;18508;49.386;8.370;2022-07-29T03:52:04;13.13;;;3.38;;
31990;SDS011;18508;49.386;8.370;2022-07-29T03:54:32;9.27;;;2.90;;
31990;SDS011;18508;49.386;8.370;2022-07-29T03:57:01;7.85;;;3.30;;
31990;SDS011;18508;49.386;8.370;2022-07-29T03:59:30;13.60;;;3.72;;
31990;SDS011;18508;49.386;8.370;2022-07-29T04:02:02;14.55;;;3.83;;
31990;SDS011;18508;49.386;8.370;2022-07-29T04:04:41;9.85;;;3.00;;
31990;SDS011;18508;49.386;8.370;2022-07-29T04:07:11;10.57;;;3.38;;
31990;SDS011;18508;49.386;8.370;2022-07-29T04:09:52;12.70;;;3.15;;
31990;SDS011;18508;49.386;8.370;2022-07-29T04:12:21;8.30;;;3.42;;
31990;SDS011;18508;49.386;8.370;2022-07-29T04:15:05;23.02;;;4.97;;
31990;SDS011;18508;49.386;8.370;2022-07-29T04:17:45;10.05;;;4.05;;
31990;SDS011;18508;49.386;8.370;2022-07-29T04:20:26;6.82;;;4.07;;
31990;SDS011;18508;49.386;8.370;2022-07-29T04:22:54;12.23;;;4.18;;
31990;SDS011;18508;49.386;8.370;2022-07-29T04:25:23;12.77;;;3.28;;
31990;SDS011;18508;49.386;8.370;2022-07-29T04:27:55;9.63;;;3.13;;
31990;SDS011;18508;49.386;8.370;2022-07-29T04:30:49;13.25;;;3.40;;
31990;SDS011;18508;49.386;8.370;2022-07-29T04:33:18;11.38;;;3.58;;
31990;SDS011;18508;49.386;8.370;2022-07-29T04:35:50;10.80;;;3.25;;
31990;SDS011;18508;49.386;8.370;2022-07-29T04:38:20;13.65;;;4.13;;
31990;SDS011;18508;49.386;8.370;2022-07-29T04:40:49;11.48;;;3.45;;
31990;SDS011;18508;49.386;8.370;2022-07-29T04:43:17;9.60;;;3.70;;
31990;SDS011;18508;49.386;8.370;2022-07-29T04:45:48;11.90;;;3.63;;
31990;SDS011;18508;49.386;8.370;2022-07-29T04:48:16;16.27;;;3.40;;
31990;SDS011;18508;49.386;8.370;2022-07-29T04:50:53;12.65;;;3.75;;
31990;SDS011;18508;49.386;8.370;2022-07-29T04:53:21;16.10;;;3.10;;
31990;SDS011;18508;49.386;8.370;2022-07-29T04:55:50;13.43;;;3.35;;
31990;SDS011;18508;49.386;8.370;2022-07-29T04:58:18;12.88;;;3.45;;
31990;SDS011;18508;49.386;8.370;2022-07-29T05:00:46;10.38;;;3.20;;
31990;SDS011;18508;49.386;8.370;2022-07-29T05:03:14;14.38;;;2.95;;
31990;SDS011;18508;49.386;8.370;2022-07-29T05:05:43;11.80;;;3.10;;
31990;SDS011;18508;49.386;8.370;2022-07-29T05:08:11;10.27;;;3.50;;
31990;SDS011;18508;49.386;8.370;2022-07-29T05:10:39;8.98;;;3.08;;
31990;SDS011;18508;49.386;8.370;2022-07-29T05:13:07;12.00;;;3.40;;
31990;SDS011;18508;49.386;8.370;2022-07-29T05:15:37;9.20;;;3.35;;
31990;SDS011;18508;49.386;8.370;2022-07-29T05:18:05;15.25;;;3.60;;
31990;SDS011;18508;49.386;8.370;2022-07-29T05:20:33;15.85;;;3.90;;
31990;SDS011;18508;49.386;8.370;2022-07-29T05:23:03;7.95;;;2.95;;
31990;SDS011;18508;49.386;8.370;2022-07-29T05:25:35;13.90;;;3.30;;
31990;SDS011;18508;49.386;8.370;2022-07-29T05:28:10;7.15;;;3.22;;
31990;SDS011;18508;49.386;8.370;2022-07-29T05:30:38;6.28;;;2.83;;
31990;SDS011;18508;49.386;8.370;2022-07-29T05:33:06;8.40;;;3.33;;
31990;SDS011;18508;49.386;8.370;2022-07-29T05:35:54;7.85;;;3.25;;
31990;SDS011;18508;49.386;8.370;2022-07-29T05:38:28;19.42;;;3.90;;
31990;SDS011;18508;49.386;8.370;2022-07-29T05:40:57;7.10;;;3.20;;
31990;SDS011;18508;49.386;8.370;2022-07-29T05:43:25;8.90;;;3.40;;
31990;SDS011;18508;49.386;8.370;2022-07-29T05:45:54;12.02;;;3.38;;
31990;SDS011;18508;49.386;8.370;2022-07-29T05:48:22;8.05;;;3.13;;
31990;SDS011;18508;49.386;8.370;2022-07-29T05:50:50;7.13;;;2.75;;
31990;SDS011;18508;49.386;8.370;2022-07-29T05:53:18;10.30;;;3.65;;
31990;SDS011;18508;49.386;8.370;2022-07-29T05:55:47;9.93;;;3.17;;
31990;SDS011;18508;49.386;8.370;2022-07-29T05:58:16;12.07;;;3.47;;
31990;SDS011;18508;49.386;8.370;2022-07-29T06:00:44;8.38;;;3.20;;
31990;SDS011;18508;49.386;8.370;2022-07-29T06:03:13;6.13;;;2.80;;
31990;SDS011;18508;49.386;8.370;2022-07-29T06:05:41;10.23;;;3.13;;
31990;SDS011;18508;49.386;8.370;2022-07-29T06:08:11;12.88;;;3.33;;
31990;SDS011;18508;49.386;8.370;2022-07-29T06:10:52;7.45;;;3.42;;
31990;SDS011;18508;49.386;8.370;2022-07-29T06:13:20;10.02;;;2.78;;
31990;SDS011;18508;49.386;8.370;2022-07-29T06:15:48;8.43;;;2.88;;
31990;SDS011;18508;49.386;8.370;2022-07-29T06:18:16;7.95;;;3.10;;
31990;SDS011;18508;49.386;8.370;2022-07-29T06:20:46;10.43;;;3.08;;
31990;SDS011;18508;49.386;8.370;2022-07-29T06:23:14;14.65;;;3.80;;
31990;SDS011;18508;49.386;8.370;2022-07-29T06:25:42;13.88;;;3.35;;
31990;SDS011;18508;49.386;8.370;2022-07-29T06:28:12;12.85;;;3.83;;
31990;SDS011;18508;49.386;8.370;2022-07-29T06:30:40;19.38;;;4.63;;
31990;SDS011;18508;49.386;8.370;2022-07-29T06:33:08;9.95;;;3.60;;
31990;SDS011;18508;49.386;8.370;2022-07-29T06:35:36;8.63;;;3.50;;
31990;SDS011;18508;49.386;8.370;2022-07-29T06:38:07;12.95;;;3.90;;
31990;SDS011;18508;49.386;8.370;2022-07-29T06:40:57;16.35;;;3.65;;
31990;SDS011;18508;49.386;8.370;2022-07-29T06:43:31;8.68;;;3.50;;
31990;SDS011;18508;49.386;8.370;2022-07-29T06:46:16;9.25;;;3.65;;
31990;SDS011;18508;49.386;8.370;2022-07-29T06:48:45;10.98;;;3.78;;
31990;SDS011;18508;49.386;8.370;2022-07-29T06:51:14;14.52;;;4.65;;
31990;SDS011;18508;49.386;8.370;2022-07-29T06:53:49;9.55;;;4.32;;
31990;SDS011;18508;49.386;8.370;2022-07-29T06:56:28;7.45;;;3.58;;
31990;SDS011;18508;49.386;8.370;2022-07-29T06:58:58;8.55;;;3.88;;
31990;SDS011;18508;49.386;8.370;2022-07-29T07:01:26;11.48;;;4.43;;
31990;SDS011;18508;49.386;8.370;2022-07-29T07:03:55;6.43;;;4.15;;
31990;SDS011;18508;49.386;8.370;2022-07-29T07:06:23;8.05;;;4.28;;
31990;SDS011;18508;49.386;8.370;2022-07-29T07:08:51;11.07;;;4.38;;
31990;SDS011;18508;49.386;8.370;2022-07-29T07:11:19;9.20;;;4.80;;
31990;SDS011;18508;49.386;8.370;2022-07-29T07:13:47;7.65;;;4.38;;
31990;SDS011;18508;49.386;8.370;2022-07-29T07:16:16;8.43;;;5.13;;
31990;SDS011;18508;49.386;8.370;2022-07-29T07:18:45;7.60;;;5.13;;
31990;SDS011;18508;49.386;8.370;2022-07-29T07:21:13;7.22;;;4.90;;
31990;SDS011;18508;49.386;8.370;2022-07-29T07:23:44;8.35;;;5.05;;
31990;SDS011;18508;49.386;8.370;2022-07-29T07:26:13;11.63;;;5.20;;
31990;SDS011;18508;49.386;8.370;2022-07-29T07:28:41;11.68;;;5.63;;
31990;SDS011;18508;49.386;8.370;2022-07-29T07:31:09;8.85;;;4.78;;
31990;SDS011;18508;49.386;8.370;2022-07-29T07:33:39;9.70;;;4.90;;
31990;SDS011;18508;49.386;8.370;2022-07-29T07:36:07;8.75;;;5.38;;
31990;SDS011;18508;49.386;8.370;2022-07-29T07:38:35;8.20;;;5.20;;
31990;SDS011;18508;49.386;8.370;2022-07-29T07:41:03;8.35;;;5.05;;
31990;SDS011;18508;49.386;8.370;2022-07-29T07:43:31;8.75;;;4.90;;
31990;SDS011;18508;49.386;8.370;2022-07-29T07:45:59;7.80;;;4.82;;
31990;SDS011;18508;49.386;8.370;2022-07-29T07:48:27;7.18;;;4.40;;
31990;SDS011;18508;49.386;8.370;2022-07-29T07:50:57;6.80;;;4.82;;
31990;SDS011;18508;49.386;8.370;2022-07-29T07:53:25;9.68;;;5.18;;
31990;SDS011;18508;49.386;8.370;2022-07-29T07:55:53;10.70;;;5.18;;
31990;SDS011;18508;49.386;8.370;2022-07-29T07:58:38;6.93;;;4.82;;
31990;SDS011;18508;49.386;8.370;2022-07-29T08:01:06;6.53;;;4.80;;
31990;SDS011;18508;49.386;8.370;2022-07-29T08:03:34;8.95;;;5.40;;
31990;SDS011;18508;49.386;8.370;2022-07-29T08:06:03;10.80;;;4.63;;
31990;SDS011;18508;49.386;8.370;2022-07-29T08:08:31;9.68;;;5.18;;
31990;SDS011;18508;49.386;8.370;2022-07-29T08:10:59;7.60;;;4.78;;
31990;SDS011;18508;49.386;8.370;2022-07-29T08:13:34;10.52;;;5.43;;
31990;SDS011;18508;49.386;8.370;2022-07-29T08:16:03;9.90;;;5.60;;
31990;SDS011;18508;49.386;8.370;2022-07-29T08:18:39;7.80;;;4.97;;
31990;SDS011;18508;49.386;8.370;2022-07-29T08:21:09;8.73;;;5.03;;
31990;SDS011;18508;49.386;8.370;2022-07-29T08:23:40;11.93;;;5.82;;
31990;SDS011;18508;49.386;8.370;2022-07-29T08:26:24;8.55;;;5.18;;
31990;SDS011;18508;49.386;8.370;2022-07-29T08:28:52;11.48;;;5.20;;
31990;SDS011;18508;49.386;8.370;2022-07-29T08:31:20;6.90;;;4.18;;
31990;SDS011;18508;49.386;8.370;2022-07-29T08:33:48;6.35;;;4.38;;
31990;SDS011;18508;49.386;8.370;2022-07-29T08:36:17;8.50;;;4.70;;
31990;SDS011;18508;49.386;8.370;2022-07-29T08:38:47;7.70;;;4.78;;
31990;SDS011;18508;49.386;8.370;2022-07-29T08:41:15;8.60;;;4.63;;
31990;SDS011;18508;49.386;8.370;2022-07-29T08:43:45;9.30;;;4.65;;
31990;SDS011;18508;49.386;8.370;2022-07-29T08:46:13;9.32;;;4.60;;
31990;SDS011;18508;49.386;8.370;2022-07-29T08:48:41;6.97;;;4.47;;
31990;SDS011;18508;49.386;8.370;2022-07-29T08:51:12;11.00;;;4.97;;
31990;SDS011;18508;49.386;8.370;2022-07-29T08:53:43;9.55;;;4.40;;
31990;SDS011;18508;49.386;8.370;2022-07-29T08:56:11;9.98;;;4.88;;
31990;SDS011;18508;49.386;8.370;2022-07-29T08:58:40;9.02;;;4.75;;
31990;SDS011;18508;49.386;8.370;2022-07-29T09:01:14;12.15;;;4.68;;
31990;SDS011;18508;49.386;8.370;2022-07-29T09:03:45;9.55;;;4.97;;
31990;SDS011;18508;49.386;8.370;2022-07-29T09:06:14;14.80;;;4.88;;
31990;SDS011;18508;49.386;8.370;2022-07-29T09:08:45;6.38;;;4.40;;
31990;SDS011;18508;49.386;8.370;2022-07-29T09:11:14;7.47;;;5.30;;
31990;SDS011;18508;49.386;8.370;2022-07-29T09:13:44;8.40;;;4.72;;
31990;SDS011;18508;49.386;8.370;2022-07-29T09:16:12;8.85;;;4.60;;
31990;SDS011;18508;49.386;8.370;2022-07-29T09:19:01;10.13;;;5.15;;
31990;SDS011;18508;49.386;8.370;2022-07-29T09:21:29;9.18;;;4.72;;
31990;SDS011;18508;49.386;8.370;2022-07-29T09:24:40;8.70;;;4.85;;
31990;SDS011;18508;49.386;8.370;2022-07-29T09:27:20;8.40;;;5.00;;
31990;SDS011;18508;49.386;8.370;2022-07-29T09:29:59;11.30;;;4.80;;
31990;SDS011;18508;49.386;8.370;2022-07-29T09:32:29;9.27;;;4.85;;
31990;SDS011;18508;49.386;8.370;2022-07-29T09:35:16;8.90;;;5.03;;
31990;SDS011;18508;49.386;8.370;2022-07-29T09:37:45;6.63;;;4.47;;
31990;SDS011;18508;49.386;8.370;2022-07-29T09:40:16;8.32;;;4.90;;
31990;SDS011;18508;49.386;8.370;2022-07-29T09:42:46;10.23;;;4.95;;
31990;SDS011;18508;49.386;8.370;2022-07-29T09:45:25;8.88;;;5.07;;
31990;SDS011;18508;49.386;8.370;2022-07-29T09:47:55;11.23;;;5.47;;
31990;SDS011;18508;49.386;8.370;2022-07-29T09:50:36;6.78;;;5.05;;
31990;SDS011;18508;49.386;8.370;2022-07-29T09:53:06;8.00;;;5.30;;
31990;SDS011;18508;49.386;8.370;2022-07-29T09:55:46;6.80;;;4.70;;
31990;SDS011;18508;49.386;8.370;2022-07-29T09:58:17;10.07;;;4.72;;
31990;SDS011;18508;49.386;8.370;2022-07-29T10:00:46;7.80;;;5.18;;
31990;SDS011;18508;49.386;8.370;2022-07-29T10:03:15;11.73;;;4.97;;
31990;SDS011;18508;49.386;8.370;2022-07-29T10:05:44;11.27;;;5.28;;
31990;SDS011;18508;49.386;8.370;2022-07-29T10:08:13;10.55;;;4.80;;
31990;SDS011;18508;49.386;8.370;2022-07-29T10:10:41;5.75;;;4.53;;
31990;SDS011;18508;49.386;8.370;2022-07-29T10:13:11;8.25;;;4.90;;
31990;SDS011;18508;49.386;8.370;2022-07-29T10:15:42;7.78;;;5.20;;
31990;SDS011;18508;49.386;8.370;2022-07-29T10:18:13;8.23;;;5.10;;
31990;SDS011;18508;49.386;8.370;2022-07-29T10:20:43;7.50;;;4.68;;
31990;SDS011;18508;49.386;8.370;2022-07-29T10:23:11;11.52;;;5.00;;
31990;SDS011;18508;49.386;8.370;2022-07-29T10:25:40;7.82;;;5.03;;
31990;SDS011;18508;49.386;8.370;2022-07-29T10:28:13;6.77;;;4.90;;
31990;SDS011;18508;49.386;8.370;2022-07-29T10:30:42;8.45;;;4.50;;
31990;SDS011;18508;49.386;8.370;2022-07-29T10:33:16;10.55;;;5.70;;
31990;SDS011;18508;49.386;8.370;2022-07-29T10:35:55;6.35;;;5.18;;
31990;SDS011;18508;49.386;8.370;2022-07-29T10:38:39;6.18;;;4.90;;
31990;SDS011;18508;49.386;8.370;2022-07-29T10:41:48;10.88;;;4.97;;
31990;SDS011;18508;49.386;8.370;2022-07-29T10:44:31;8.15;;;5.00;;
31990;SDS011;18508;49.386;8.370;2022-07-29T10:47:00;7.68;;;5.18;;
31990;SDS011;18508;49.386;8.370;2022-07-29T10:49:28;6.57;;;5.22;;
31990;SDS011;18508;49.386;8.370;2022-07-29T10:52:01;7.05;;;5.03;;
31990;SDS011;18508;49.386;8.370;2022-07-29T10:54:41;8.88;;;4.55;;
31990;SDS011;18508;49.386;8.370;2022-07-29T10:57:17;5.70;;;4.80;;
31990;SDS011;18508;49.386;8.370;2022-07-29T11:00:27;7.63;;;4.90;;
31990;SDS011;18508;49.386;8.370;2022-07-29T11:02:57;8.07;;;4.90;;
31990;SDS011;18508;49.386;8.370;2022-07-29T11:08:20;7.78;;;4.82;;
31990;SDS011;18508;49.386;8.370;2022-07-29T11:10:53;7.85;;;4.97;;
31990;SDS011;18508;49.386;8.370;2022-07-29T11:14:03;8.75;;;5.07;;
31990;SDS011;18508;49.386;8.370;2022-07-29T11:16:58;7.43;;;4.90;;
31990;SDS011;18508;49.386;8.370;2022-07-29T11:19:32;10.98;;;5.03;;
31990;SDS011;18508;49.386;8.370;2022-07-29T11:22:07;7.00;;;4.55;;
31990;SDS011;18508;49.386;8.370;2022-07-29T11:24:36;9.38;;;5.40;;
31990;SDS011;18508;49.386;8.370;2022-07-29T11:27:15;10.18;;;4.68;;
31990;SDS011;18508;49.386;8.370;2022-07-29T11:29:53;13.02;;;5.38;;
31990;SDS011;18508;49.386;8.370;2022-07-29T11:32:25;7.63;;;4.88;;
31990;SDS011;18508;49.386;8.370;2022-07-29T11:35:14;5.47;;;4.75;;
31990;SDS011;18508;49.386;8.370;2022-07-29T11:43:51;8.07;;;5.30;;
31990;SDS011;18508;49.386;8.370;2022-07-29T11:49:15;6.80;;;4.53;;
31990;SDS011;18508;49.386;8.370;2022-07-29T11:51:58;6.78;;;4.47;;
31990;SDS011;18508;49.386;8.370;2022-07-29T11:54:30;9.38;;;5.07;;
31990;SDS011;18508;49.386;8.370;2022-07-29T11:57:19;7.85;;;4.45;;
31990;SDS011;18508;49.386;8.370;2022-07-29T11:59:47;10.32;;;4.32;;
31990;SDS011;18508;49.386;8.370;2022-07-29T12:02:16;8.32;;;4.50;;
31990;SDS011;18508;49.386;8.370;2022-07-29T12:05:05;9.45;;;4.07;;
31990;SDS011;18508;49.386;8.370;2022-07-29T12:07:36;9.65;;;4.45;;
31990;SDS011;18508;49.386;8.370;2022-07-29T12:10:11;7.53;;;4.45;;
31990;SDS011;18508;49.386;8.370;2022-07-29T12:12:54;8.88;;;4.63;;
31990;SDS011;18508;49.386;8.370;2022-07-29T12:15:23;11.07;;;4.40;;
31990;SDS011;18508;49.386;8.370;2022-07-29T12:18:13;6.32;;;4.53;;
31990;SDS011;18508;49.386;8.370;2022-07-29T12:20:45;7.38;;;5.00;;
31990;SDS011;18508;49.386;8.370;2022-07-29T12:23:14;8.23;;;4.70;;
31990;SDS011;18508;49.386;8.370;2022-07-29T12:25:44;12.02;;;5.32;;
31990;SDS011;18508;49.386;8.370;2022-07-29T12:28:15;10.05;;;4.93;;
31990;SDS011;18508;49.386;8.370;2022-07-29T12:30:52;7.25;;;4.88;;
31990;SDS011;18508;49.386;8.370;2022-07-29T12:33:21;6.45;;;4.68;;
31990;SDS011;18508;49.386;8.370;2022-07-29T12:35:51;7.50;;;4.95;;
31990;SDS011;18508;49.386;8.370;2022-07-29T12:38:32;7.72;;;4.05;;
31990;SDS011;18508;49.386;8.370;2022-07-29T12:41:01;10.90;;;4.55;;
31990;SDS011;18508;49.386;8.370;2022-07-29T12:43:30;7.18;;;4.80;;
31990;SDS011;18508;49.386;8.370;2022-07-29T12:45:58;8.10;;;4.93;;
31990;SDS011;18508;49.386;8.370;2022-07-29T12:48:40;9.45;;;4.45;;
31990;SDS011;18508;49.386;8.370;2022-07-29T12:51:11;14.15;;;4.88;;
31990;SDS011;18508;49.386;8.370;2022-07-29T12:53:40;8.00;;;4.82;;
31990;SDS011;18508;49.386;8.370;2022-07-29T12:56:15;8.05;;;3.78;;
31990;SDS011;18508;49.386;8.370;2022-07-29T12:59:10;10.57;;;4.65;;
31990;SDS011;18508;49.386;8.370;2022-07-29T13:01:40;7.32;;;4.30;;
31990;SDS011;18508;49.386;8.370;2022-07-29T13:04:08;6.85;;;4.22;;
31990;SDS011;18508;49.386;8.370;2022-07-29T13:06:38;7.85;;;4.20;;
31990;SDS011;18508;49.386;8.370;2022-07-29T13:09:11;7.43;;;4.25;;
31990;SDS011;18508;49.386;8.370;2022-07-29T13:11:41;5.93;;;4.25;;
31990;SDS011;18508;49.386;8.370;2022-07-29T13:14:14;5.07;;;4.05;;
31990;SDS011;18508;49.386;8.370;2022-07-29T13:17:01;7.63;;;3.80;;
31990;SDS011;18508;49.386;8.370;2022-07-29T13:19:37;7.75;;;3.90;;
31990;SDS011;18508;49.386;8.370;2022-07-29T13:22:09;8.15;;;3.72;;
31990;SDS011;18508;49.386;8.370;2022-07-29T13:24:47;5.68;;;3.13;;
31990;SDS011;18508;49.386;8.370;2022-07-29T13:27:17;8.02;;;3.85;;
31990;SDS011;18508;49.386;8.370;2022-07-29T13:29:46;5.35;;;3.33;;
31990;SDS011;18508;49.386;8.370;2022-07-29T13:32:15;5.35;;;3.50;;
31990;SDS011;18508;49.386;8.370;2022-07-29T13:34:43;4.28;;;3.65;;
31990;SDS011;18508;49.386;8.370;2022-07-29T13:37:13;8.32;;;4.07;;
31990;SDS011;18508;49.386;8.370;2022-07-29T13:39:41;7.43;;;4.32;;
31990;SDS011;18508;49.386;8.370;2022-07-29T13:42:18;4.97;;;3.63;;
31990;SDS011;18508;49.386;8.370;2022-07-29T13:44:46;6.78;;;4.10;;
31990;SDS011;18508;49.386;8.370;2022-07-29T13:47:17;6.60;;;3.53;;
31990;SDS011;18508;49.386;8.370;2022-07-29T13:49:45;5.63;;;3.70;;
31990;SDS011;18508;49.386;8.370;2022-07-29T13:52:14;5.68;;;3.38;;
31990;SDS011;18508;49.386;8.370;2022-07-29T13:54:43;7.60;;;3.75;;
31990;SDS011;18508;49.386;8.370;2022-07-29T13:57:11;7.63;;;3.47;;
31990;SDS011;18508;49.386;8.370;2022-07-29T13:59:40;5.97;;;3.65;;
31990;SDS011;18508;49.386;8.370;2022-07-29T14:02:09;4.88;;;3.70;;
31990;SDS011;18508;49.386;8.370;2022-07-29T14:04:40;4.78;;;3.80;;
31990;SDS011;18508;49.386;8.370;2022-07-29T14:07:09;7.88;;;3.95;;
31990;SDS011;18508;49.386;8.370;2022-07-29T14:09:43;7.13;;;3.50;;
31990;SDS011;18508;49.386;8.370;2022-07-29T14:12:11;8.02;;;4.20;;
31990;SDS011;18508;49.386;8.370;2022-07-29T14:14:39;6.97;;;3.33;;
31990;SDS011;18508;49.386;8.370;2022-07-29T14:17:08;4.35;;;2.75;;
31990;SDS011;18508;49.386;8.370;2022-07-29T14:19:36;4.85;;;3.08;;
31990;SDS011;18508;49.386;8.370;2022-07-29T14:22:05;6.15;;;3.55;;
31990;SDS011;18508;49.386;8.370;2022-07-29T14:24:36;5.93;;;3.15;;
31990;SDS011;18508;49.386;8.370;2022-07-29T14:27:06;4.88;;;3.13;;
31990;SDS011;18508;49.386;8.370;2022-07-29T14:29:35;6.43;;;2.92;;
31990;SDS011;18508;49.386;8.370;2022-07-29T14:32:04;4.93;;;2.83;;
31990;SDS011;18508;49.386;8.370;2022-07-29T14:34:33;8.63;;;2.72;;
31990;SDS011;18508;49.386;8.370;2022-07-29T14:37:01;6.45;;;2.95;;
31990;SDS011;18508;49.386;8.370;2022-07-29T14:39:32;5.82;;;3.00;;
31990;SDS011;18508;49.386;8.370;2022-07-29T14:42:08;4.18;;;2.72;;
31990;SDS011;18508;49.386;8.370;2022-07-29T14:44:38;5.32;;;2.72;;
31990;SDS011;18508;49.386;8.370;2022-07-29T14:47:07;4.50;;;3.00;;
31990;SDS011;18508;49.386;8.370;2022-07-29T14:49:35;5.32;;;2.65;;
31990;SDS011;18508;49.386;8.370;2022-07-29T14:52:04;4.78;;;2.50;;
31990;SDS011;18508;49.386;8.370;2022-07-29T14:54:32;4.40;;;2.45;;
31990;SDS011;18508;49.386;8.370;2022-07-29T14:57:00;4.38;;;2.65;;
31990;SDS011;18508;49.386;8.370;2022-07-29T14:59:30;6.13;;;2.58;;
31990;SDS011;18508;49.386;8.370;2022-07-29T15:01:59;5.90;;;2.55;;
31990;SDS011;18508;49.386;8.370;2022-07-29T15:04:28;3.70;;;2.58;;
31990;SDS011;18508;49.386;8.370;2022-07-29T15:06:56;4.13;;;2.42;;
31990;SDS011;18508;49.386;8.370;2022-07-29T15:09:30;5.35;;;2.20;;
31990;SDS011;18508;49.386;8.370;2022-07-29T15:12:14;5.15;;;2.35;;
31990;SDS011;18508;49.386;8.370;2022-07-29T15:14:45;6.30;;;2.63;;
31990;SDS011;18508;49.386;8.370;2022-07-29T15:17:13;6.50;;;2.83;;
31990;SDS011;18508;49.386;8.370;2022-07-29T15:19:41;4.50;;;1.98;;
31990;SDS011;18508;49.386;8.370;2022-07-29T15:22:14;4.90;;;2.15;;
31990;SDS011;18508;49.386;8.370;2022-07-29T15:24:46;4.88;;;2.10;;
31990;SDS011;18508;49.386;8.370;2022-07-29T15:27:15;5.03;;;1.75;;